Latest Weather Observations for Frankston

IDV60901

Issued at 11:25 pm EST Wednesday 17 September 2014 (issued every 10 minutes, with the page automatically refreshed every 10 minutes)

About weather observations | Map of Melbourne area stations | Latest observations for Melbourne area | Other Formats
Station Details ID: 086371 Name: FRANKSTON AWS Lat: -38.15 Lon: 145.12 Height: 6.0 m
Data from the previous 72 hours. | See also: Recent months at Frankston
Date/Time
EST
Tmp

°C
App
Tmp
°C
Dew
Point
°C
Rel
Hum
%
Delta-T

°C
Wind Press
QNH
hPa
Press
MSL
hPa
Rain
since
9 am
mm
Dir
 
Spd
km/h
Gust
km/h
Spd
kts
Gust
kts
17/11:00pm 10.1 3.4 5.5 73 2.1 W 30 37 16 20 - - -
17/10:30pm 10.0 2.8 5.2 72 2.2 W 32 39 17 21 - - -
17/10:00pm 10.2 3.5 5.4 72 2.2 W 30 35 16 19 - - -
17/09:30pm 10.6 3.6 5.8 72 2.2 W 32 41 17 22 - - -
17/09:00pm 10.6 3.5 5.4 70 2.4 W 32 37 17 20 - - -
17/08:30pm 10.6 4.2 5.4 70 2.4 W 28 35 15 19 - - -
17/08:08pm 10.1 2.1 3.6 64 2.8 W 35 54 19 29 - - -
17/08:00pm 9.7 0.6 3.9 67 2.5 W 41 54 22 29 - - -
17/07:45pm 9.0 2.0 4.2 72 2.1 W 30 50 16 27 - - -
17/07:30pm 10.3 3.0 4.7 68 2.5 W 32 37 17 20 - - -
17/07:00pm 10.9 2.7 4.6 65 2.8 W 37 54 20 29 - - -
17/06:30pm 10.4 3.5 4.5 67 2.6 SW 30 41 16 22 - - -
17/06:00pm 11.0 2.9 5.1 67 2.7 WSW 37 48 20 26 - - -
17/05:42pm 11.1 4.1 4.3 63 3.0 SW 30 52 16 28 - - -
17/05:30pm 11.0 3.4 4.0 62 3.1 SW 33 43 18 23 - - -
17/05:00pm 11.3 2.6 4.1 61 3.2 WSW 39 50 21 27 - - -
17/04:30pm 11.6 3.1 3.4 57 3.6 WSW 37 48 20 26 - - -
17/04:00pm 11.0 2.0 4.5 64 2.9 WSW 41 59 22 32 - - -
17/03:59pm 11.1 2.0 4.1 62 3.1 WSW 41 59 22 32 - - -
17/03:30pm 11.6 2.4 5.5 66 2.8 WSW 43 50 23 27 - - -
17/03:00pm 11.3 3.1 6.6 73 2.2 WSW 39 50 21 27 - - -
17/02:30pm 11.0 2.8 6.4 73 2.2 WSW 39 48 21 26 - - -
17/02:00pm 11.3 3.8 6.4 72 2.3 WSW 35 59 19 32 - - -
17/01:30pm 11.9 3.9 5.8 66 2.8 WSW 37 44 20 24 - - -
17/01:00pm 12.1 4.6 4.6 60 3.4 WSW 33 43 18 23 - - -
17/12:30pm 11.8 4.7 5.7 66 2.8 W 32 41 17 22 - - -
17/12:00pm 10.7 3.3 6.6 76 1.9 W 35 46 19 25 - - -
17/11:30am 11.4 4.3 6.5 72 2.3 W 33 56 18 30 - - -
17/11:29am 12.0 5.2 6.7 70 2.5 W 32 54 17 29 - - -
17/11:00am 12.0 5.3 7.3 73 2.3 W 32 39 17 21 - - -
17/10:30am 11.6 4.8 7.1 74 2.2 W 32 37 17 20 - - -
17/10:00am 11.3 4.6 7.2 76 2.0 W 32 39 17 21 - - -
17/09:30am 11.1 4.5 7.8 80 1.6 WNW 32 39 17 21 - - -
17/09:00am 11.0 4.2 7.9 81 1.5 WNW 33 39 18 21 - - -
17/08:30am 10.6 4.4 7.7 82 1.4 WNW 30 35 16 19 - - -
17/08:00am 10.8 4.2 7.9 82 1.4 WNW 32 37 17 20 - - -
17/07:30am 10.9 4.8 8.3 84 1.3 WNW 30 39 16 21 - - -
17/07:00am 10.8 4.4 8.7 87 1.0 WNW 32 37 17 20 - - -
17/06:30am 10.9 4.3 8.7 86 1.1 WNW 33 39 18 21 - - -
17/06:00am 11.3 4.7 8.7 84 1.3 WNW 33 39 18 21 - - -
17/05:30am 11.1 4.4 8.3 83 1.4 WNW 33 41 18 22 - - -
17/05:00am 11.1 4.6 8.3 83 1.4 WNW 32 39 17 21 - - -
17/04:30am 11.3 6.8 8.5 83 1.4 NW 22 33 12 18 - - -
17/04:00am 11.4 6.8 8.3 81 1.5 NW 22 26 12 14 - - -
17/03:30am 11.5 7.0 8.5 82 1.5 WNW 22 26 12 14 - - -
17/03:00am 11.5 6.6 8.5 82 1.5 WNW 24 28 13 15 - - -
17/02:30am 11.2 7.3 8.8 85 1.2 NW 19 24 10 13 - - -
17/02:00am 11.3 7.2 8.5 83 1.4 NW 20 22 11 12 - - -
17/01:30am 11.4 6.8 8.3 81 1.5 NW 22 26 12 14 - - -
17/01:00am 11.4 7.4 8.4 82 1.5 NW 19 22 10 12 - - -
17/12:30am 11.6 7.8 9.0 84 1.3 NNW 19 22 10 12 - - -
17/12:00am 11.9 8.4 8.9 82 1.5 NW 17 19 9 10 - - -
 
Date/Time
EST
Tmp

°C
App
Tmp
°C
Dew
Point
°C
Rel
Hum
%
Delta-T

°C
Wind Press
QNH
hPa
Press
MSL
hPa
Rain
since
9 am
mm
Dir
 
Spd
km/h
Gust
km/h
Spd
kts
Gust
kts
16/11:30pm 11.7 8.2 8.6 81 1.5 NW 17 19 9 10 - - -
16/11:00pm 12.1 8.4 7.8 75 2.1 W 17 20 9 11 - - -
16/10:30pm 12.6 9.1 8.7 77 1.9 W 17 20 9 11 - - -
16/10:00pm 11.7 9.7 7.2 74 2.2 SW 7 11 4 6 - - -
16/09:30pm 12.0 9.3 7.3 73 2.3 SW 11 17 6 9 - - -
16/09:00pm 12.3 8.0 7.2 71 2.5 SW 19 26 10 14 - - -
16/08:30pm 12.5 6.2 7.4 71 2.5 WSW 30 33 16 18 - - -
16/08:00pm 12.6 7.3 8.3 75 2.1 WSW 26 33 14 18 - - -
16/07:30pm 12.6 7.5 7.5 71 2.5 SW 24 33 13 18 - - -
16/07:00pm 12.6 7.6 8.1 74 2.2 SW 24 35 13 19 - - -
16/06:30pm 12.7 7.0 8.4 75 2.1 SW 28 37 15 20 - - -
16/06:00pm 12.9 7.7 8.8 76 2.1 SW 26 37 14 20 - - -
16/05:30pm 13.3 7.1 9.2 76 2.1 WSW 32 41 17 22 - - -
16/05:00pm 13.3 7.1 9.4 77 2.0 WSW 32 39 17 21 - - -
16/04:30pm 13.2 7.0 9.3 77 2.0 SW 32 44 17 24 - - -
16/04:00pm 13.2 6.9 9.6 79 1.8 WSW 33 44 18 24 - - -
16/03:30pm 13.3 7.1 9.4 77 2.0 WSW 32 43 17 23 - - -
16/03:00pm 13.2 6.5 9.5 78 1.9 WSW 35 46 19 25 - - -
16/02:30pm 13.3 7.2 9.9 80 1.7 WSW 32 41 17 22 - - -
16/02:00pm 13.3 7.8 10.7 84 1.4 WSW 30 37 16 20 - - -
16/01:30pm 13.5 9.8 11.6 88 1.0 WSW 22 32 12 17 - - -
16/01:00pm 13.4 10.3 11.5 88 1.0 WSW 19 24 10 13 - - -
16/12:30pm 13.9 11.9 11.6 86 1.2 WSW 13 19 7 10 - - -
16/12:00pm 13.1 10.3 11.5 90 0.8 W 17 19 9 10 - - -
16/11:30am 13.3 11.5 10.8 85 1.3 W 11 15 6 8 - - -
16/11:00am 14.4 13.5 10.8 79 1.9 S 6 9 3 5 - - -
16/10:30am 13.9 12.8 10.5 80 1.8 S 7 17 4 9 - - -
16/10:00am 13.4 12.4 11.1 86 1.2 SSW 7 11 4 6 - - -
16/09:30am 12.9 12.6 11.3 90 0.8 SSW 4 7 2 4 - - -
16/09:00am 12.4 12.7 11.0 91 0.7 CALM 0 0 0 0 - - -
16/08:30am 12.4 12.8 11.1 92 0.7 CALM 0 2 0 1 - - -
16/08:00am 12.1 11.1 11.0 93 0.6 NNE 7 7 4 4 - - -
16/07:30am 11.8 12.0 10.7 93 0.6 CALM 0 0 0 0 - - -
16/07:00am 11.7 11.9 10.6 93 0.6 CALM 0 0 0 0 - - -
16/06:30am 11.3 10.6 10.2 93 0.6 NNW 4 6 2 3 - - -
16/06:00am 11.2 9.9 9.8 91 0.7 N 7 9 4 5 - - -
16/05:30am 11.5 10.1 9.6 88 1.0 N 7 9 4 5 - - -
16/05:00am 12.3 11.1 10.2 87 1.1 E 7 13 4 7 - - -
16/04:30am 12.3 9.9 10.0 86 1.2 E 13 19 7 10 - - -
16/04:00am 12.1 9.7 10.0 87 1.1 E 13 22 7 12 - - -
16/03:30am 12.1 9.6 9.8 86 1.2 E 13 20 7 11 - - -
16/03:00am 12.2 9.3 9.8 85 1.2 E 15 22 8 12 - - -
16/02:30am 12.4 9.5 9.6 83 1.4 ESE 15 28 8 15 - - -
16/02:00am 12.6 9.4 9.8 83 1.4 ESE 17 30 9 16 - - -
16/01:30am 12.6 9.4 10.0 84 1.3 ESE 17 28 9 15 - - -
16/01:00am 12.6 9.4 10.1 85 1.3 ESE 17 30 9 16 - - -
16/12:30am 12.5 9.4 10.2 86 1.2 ESE 17 33 9 18 - - -
16/12:00am 12.4 9.2 10.0 85 1.2 ESE 17 28 9 15 - - -
 
Date/Time
EST
Tmp

°C
App
Tmp
°C
Dew
Point
°C
Rel
Hum
%
Delta-T

°C
Wind Press
QNH
hPa
Press
MSL
hPa
Rain
since
9 am
mm
Dir
 
Spd
km/h
Gust
km/h
Spd
kts
Gust
kts
15/11:30pm 12.6 9.7 9.8 83 1.4 ESE 15 24 8 13 - - -
15/11:00pm 12.7 9.8 9.5 81 1.6 ESE 15 32 8 17 - - -
15/10:30pm 12.8 9.5 9.6 81 1.6 ESE 17 28 9 15 - - -
15/10:00pm 12.8 9.1 9.6 81 1.6 ESE 19 32 10 17 - - -
15/09:30pm 12.8 9.1 9.6 81 1.6 ESE 19 33 10 18 - - -
15/09:00pm 13.0 9.4 9.8 81 1.6 ESE 19 32 10 17 - - -
15/08:30pm 13.2 9.6 10.0 81 1.6 ESE 19 32 10 17 - - -
15/08:00pm 13.5 10.3 10.1 80 1.8 ESE 17 32 9 17 - - -
15/07:30pm 14.0 10.8 10.0 77 2.1 ESE 17 30 9 16 - - -
15/07:00pm 14.3 11.1 10.1 76 2.2 ESE 17 32 9 17 - - -
15/06:30pm 14.6 11.4 10.0 74 2.4 ESE 17 30 9 16 - - -
15/06:00pm 14.9 11.6 9.7 71 2.7 ESE 17 32 9 17 - - -
15/05:30pm 15.5 11.7 9.2 66 3.2 ESE 19 32 10 17 - - -
15/05:00pm 16.2 12.2 8.2 59 4.0 ESE 19 30 10 16 - - -
15/04:30pm 15.6 13.2 11.4 76 2.3 ESE 15 24 8 13 - - -
15/04:00pm 15.5 13.9 11.5 77 2.2 ESE 11 20 6 11 - - -
15/03:30pm 15.6 13.5 11.0 74 2.5 SE 13 20 7 11 - - -
15/03:00pm 15.7 13.9 10.9 73 2.6 SE 11 22 6 12 - - -
15/02:30pm 15.8 14.0 10.8 72 2.7 SE 11 20 6 11 - - -
15/02:00pm 16.0 13.4 10.7 71 2.8 SE 15 26 8 14 - - -
15/01:30pm 16.2 14.4 10.9 71 2.8 SE 11 20 6 11 - - -
15/01:00pm 16.4 15.0 10.9 70 2.9 SE 9 17 5 9 - - -
15/12:30pm 16.5 14.6 10.6 68 3.1 ESE 11 20 6 11 - - -
15/12:00pm 16.7 15.7 11.0 69 3.1 SE 7 15 4 8 - - -
15/11:30am 14.8 13.5 9.8 72 2.6 ESE 7 13 4 7 - - -
15/11:00am 13.6 11.7 9.1 74 2.3 ESE 9 17 5 9 - - -
15/10:30am 12.4 9.6 8.7 78 1.8 ESE 13 20 7 11 - - -
15/10:00am 12.0 10.1 9.0 82 1.5 ESE 9 17 5 9 - - -
15/09:30am 11.8 10.0 9.5 86 1.2 ESE 9 15 5 8 - - -
15/09:00am 11.1 9.7 9.5 90 0.8 E 7 13 4 7 - - -
15/08:30am 10.4 9.1 9.2 92 0.6 ESE 6 9 3 5 - - -
15/08:00am 9.9 8.9 8.8 93 0.5 E 4 6 2 3 - - -
15/07:30am 9.9 8.5 8.7 92 0.6 ENE 6 7 3 4 - - -
15/07:00am 10.1 9.8 8.7 91 0.7 CALM 0 0 0 0 - - -
15/06:30am 9.8 9.4 8.4 91 0.7 CALM 0 0 0 0 - - -
15/06:00am 9.7 9.3 8.3 91 0.7 CALM 0 0 0 0 - - -
15/05:30am 9.7 8.6 8.3 91 0.7 E 4 6 2 3 - - -
15/05:00am 10.0 9.3 8.6 91 0.7 ENE 2 4 1 2 - - -
15/04:30am 10.2 9.2 8.8 91 0.7 ESE 4 9 2 5 - - -
15/04:00am 10.0 8.9 8.6 91 0.7 ESE 4 7 2 4 - - -
15/03:30am 10.5 9.6 9.3 92 0.6 ESE 4 6 2 3 - - -
15/03:00am 10.5 9.9 9.1 91 0.7 SE 2 6 1 3 - - -
15/02:30am 10.2 9.9 8.8 91 0.7 CALM 0 0 0 0 - - -
15/02:00am 10.4 10.1 8.8 90 0.8 CALM 0 0 0 0 - - -
15/01:30am 10.5 10.3 8.9 90 0.8 CALM 0 4 0 2 - - -
15/01:00am 10.3 10.0 8.7 90 0.8 CALM 0 0 0 0 - - -
15/12:30am 10.5 9.5 8.9 90 0.8 S 4 4 2 2 - - -
15/12:00am 10.9 10.7 9.2 89 0.8 CALM 0 0 0 0 - - -
 
Date/Time
EST
Tmp

°C
App
Tmp
°C
Dew
Point
°C
Rel
Hum
%
Delta-T

°C
Wind Press
QNH
hPa
Press
MSL
hPa
Rain
since
9 am
mm
Dir
 
Spd
km/h
Gust
km/h
Spd
kts
Gust
kts
14/11:30pm 11.2 10.7 9.3 88 1.0 E 2 2 1 1 - - -

Latest Capital City Observations: Canberra | Sydney | Melbourne | Brisbane | Adelaide | Perth | Hobart | Darwin

Other Formats:

Comma delimited format used in spreadsheet applications
http://www.bom.gov.au/fwo/IDV60901/IDV60901.94871.axf

JavaScript Object Notation format (JSON) in row-major order
http://www.bom.gov.au/fwo/IDV60901/IDV60901.94871.json